»·PEaware :: N642SP KSBA-KVNY

N642SP :: KSBA-KVNY

FLIGHT INFORMATION

Flight Status: Arrived
Operator: Privately registered:
United States
More flights under this callsign
Pilot: Wes T. (5776)
Aircraft: CESSNA 172 SKYHAWK
(C172)
More flights by this aircraft type
Origin: KSBA Santa Barbara Mun
United States
Destination: KVNY Van Nuys
United States
More flights between these airports :: More routes between these airports
Route: KWANG5 KWANG CMA CMA072R GINNA
File this flight plan on PilotEdge
Remarks: ODP to TEC route SANN19
Altitude:
(Current/Filed)
5,000ft
Speed:
(Current/Filed)
102kts
Departed: 19-Jun-15 04:01 PM
Arrived: 19-Jun-15 04:41 PM
Distance/Time
Traveled:
68nm/0:40
Distance/Time
To Go:
Arrived

Flight Plot

Page will automatically refresh every two minutes.


Map Options




Map Legend


Flown Route
Filed Route
Departure Airport
Arrival Airport
Navaid (VOR, NDB)
Fix

Horizontal Profiles

Position Reports

Time Latitude Longitude Heading Altitude Ground
Speed
19-Jun-15 15:49 34.430461 -119.842755 329 13ft 0kts
19-Jun-15 15:50 34.430464 -119.842756 329 13ft 0kts
19-Jun-15 15:51 34.430467 -119.842758 329 13ft 0kts
19-Jun-15 15:52 34.430469 -119.842760 329 13ft 0kts
19-Jun-15 15:53 34.430472 -119.842762 330 13ft 0kts
19-Jun-15 15:54 34.430475 -119.842764 330 13ft 0kts
19-Jun-15 15:55 34.430478 -119.842766 330 13ft 0kts
19-Jun-15 15:56 34.430480 -119.842768 330 13ft 0kts
19-Jun-15 15:57 34.430249 -119.842546 155 13ft 0kts
19-Jun-15 15:58 34.430031 -119.842258 74 13ft 5kts
19-Jun-15 15:59 34.430090 -119.842052 75 13ft 0kts
19-Jun-15 16:00 34.422722 -119.839101 165 205ft 70kts
19-Jun-15 16:01 34.413893 -119.821249 79 1157ft 85kts
19-Jun-15 16:02 34.407608 -119.792689 112 1987ft 95kts
19-Jun-15 16:03 34.397974 -119.759700 110 2707ft 110kts
19-Jun-15 16:04 34.385958 -119.725194 114 3477ft 106kts
19-Jun-15 16:05 34.374664 -119.693965 110 4360ft 96kts
19-Jun-15 16:06 34.364105 -119.664451 107 5010ft 111kts
19-Jun-15 16:07 34.350927 -119.626757 109 4998ft 120kts
19-Jun-15 16:08 34.337610 -119.589640 109 4999ft 119kts
19-Jun-15 16:09 34.324359 -119.552764 109 5000ft 119kts
19-Jun-15 16:10 34.311045 -119.515794 109 5002ft 119kts
19-Jun-15 16:11 34.301932 -119.477459 100 5000ft 118kts
19-Jun-15 16:12 34.293112 -119.439137 104 5000ft 119kts
19-Jun-15 16:13 34.283424 -119.400905 100 5001ft 118kts
19-Jun-15 16:14 34.274598 -119.362445 100 5000ft 118kts
19-Jun-15 16:15 34.265835 -119.324085 100 5000ft 118kts
19-Jun-15 16:16 34.257053 -119.285656 100 5002ft 117kts
19-Jun-15 16:17 34.248325 -119.247532 100 5000ft 117kts
19-Jun-15 16:18 34.239558 -119.209289 101 5003ft 118kts
19-Jun-15 16:19 34.230739 -119.170904 101 5002ft 119kts
19-Jun-15 16:20 34.221854 -119.132306 101 5001ft 118kts
19-Jun-15 16:21 34.213002 -119.093766 99 4998ft 118kts
19-Jun-15 16:22 34.214128 -119.061436 81 5005ft 115kts
19-Jun-15 16:23 34.215863 -119.022651 81 5018ft 115kts
19-Jun-15 16:24 34.217759 -118.977177 81 5015ft 116kts
19-Jun-15 16:25 34.219099 -118.944631 81 5015ft 116kts
19-Jun-15 16:26 34.220685 -118.905732 81 5015ft 116kts
19-Jun-15 16:27 34.222257 -118.866675 82 5012ft 116kts
19-Jun-15 16:28 34.222500 -118.827778 86 5076ft 111kts
19-Jun-15 16:29 34.223245 -118.789275 82 4711ft 121kts
19-Jun-15 16:30 34.221911 -118.748915 91 4013ft 118kts
19-Jun-15 16:31 34.223463 -118.711304 83 3412ft 104kts
19-Jun-15 16:32 34.223759 -118.680417 85 3434ft 91kts
19-Jun-15 16:33 34.223877 -118.648853 85 3426ft 95kts
19-Jun-15 16:34 34.223948 -118.616827 85 3422ft 95kts
19-Jun-15 16:35 34.224026 -118.584014 84 3115ft 104kts
19-Jun-15 16:36 34.225147 -118.550206 84 2341ft 100kts
19-Jun-15 16:37 34.227753 -118.520783 87 1725ft 73kts
19-Jun-15 16:38 34.228006 -118.499263 99 1274ft 51kts
19-Jun-15 16:39 34.216002 -118.490964 169 866ft 57kts
19-Jun-15 16:40 34.209582 -118.490962 260 805ft 0kts
19-Jun-15 16:41 34.209214 -118.491432 180 805ft 7kts
19-Jun-15 16:42 34.206646 -118.491232 176 805ft 9kts
19-Jun-15 16:43 34.205687 -118.492259 267 805ft 0kts

Navigation Log

Ident Type
Flight plan parsing failed, navigation log unavailable